Time;durP1;ratioP1;P1;durP2;ratioP2;P2;SDS_P1;SDS_P2;PMS_P1;PMS_P2;Temp;Humidity;BMP_temperature;BMP_pressure;BME280_temperature;BME280_humidity;BME280_pressure;Samples;Min_cycle;Max_cycle;Signal;HPM_P1;HPM_P2
2023/06/20 00:00:10;;;;;;;15.27;14.02;;;23.10;99.90;;;;;;4987436;28;20313;-72
2023/06/20 00:02:38;;;;;;;16.27;14.73;;;23.10;99.90;;;;;;4987332;28;20237;-71
2023/06/20 00:05:05;;;;;;;15.88;14.68;;;23.10;99.90;;;;;;4987288;28;20308;-71
2023/06/20 00:07:33;;;;;;;14.95;13.75;;;23.00;99.90;;;;;;4986961;28;20210;-71
2023/06/20 00:10:00;;;;;;;17.33;15.82;;;23.00;99.90;;;;;;4987360;28;20744;-71
2023/06/20 00:12:28;;;;;;;15.60;14.40;;;22.90;99.90;;;;;;4988372;28;20297;-71
2023/06/20 00:14:55;;;;;;;15.45;14.15;;;22.90;99.90;;;;;;4990020;28;20297;-72
2023/06/20 00:17:25;;;;;;;16.55;15.25;;;22.90;99.90;;;;;;4987369;28;20245;-71
2023/06/20 00:19:52;;;;;;;16.33;14.90;;;22.90;99.90;;;;;;4986833;28;20214;-71
2023/06/20 00:22:19;;;;;;;16.88;15.50;;;22.80;99.90;;;;;;4987266;28;20288;-71
2023/06/20 00:24:46;;;;;;;18.15;16.50;;;22.70;99.90;;;;;;4987056;28;20250;-71
2023/06/20 00:27:13;;;;;;;16.27;14.98;;;22.70;99.90;;;;;;4986530;28;20325;-71
2023/06/20 00:29:41;;;;;;;18.15;16.75;;;22.70;99.90;;;;;;4986667;28;20807;-71
2023/06/20 00:32:08;;;;;;;16.38;15.15;;;22.70;99.90;;;;;;4986089;28;20293;-71
2023/06/20 00:34:35;;;;;;;16.27;15.07;;;22.70;99.90;;;;;;4986177;28;20620;-71
2023/06/20 00:37:02;;;;;;;17.33;15.95;;;22.70;99.90;;;;;;4997120;28;20300;-71
2023/06/20 00:39:29;;;;;;;17.77;16.20;;;22.70;99.90;;;;;;5006075;28;20214;-71
2023/06/20 00:41:56;;;;;;;17.00;15.70;;;22.70;99.90;;;;;;5006150;28;20297;-71
2023/06/20 00:44:23;;;;;;;17.33;15.93;;;22.70;99.90;;;;;;5005666;28;20248;-71
2023/06/20 00:46:51;;;;;;;17.30;15.90;;;22.70;99.90;;;;;;4999464;28;20234;-72
2023/06/20 00:49:18;;;;;;;17.77;16.27;;;22.70;99.90;;;;;;4986292;28;20285;-71
2023/06/20 00:51:45;;;;;;;17.02;15.73;;;22.70;99.90;;;;;;4986300;28;20233;-72
2023/06/20 00:54:12;;;;;;;17.35;15.85;;;22.70;99.90;;;;;;4986231;28;20328;-72
2023/06/20 00:56:39;;;;;;;16.60;15.25;;;22.70;99.90;;;;;;4985778;28;20301;-72
2023/06/20 00:59:06;;;;;;;18.00;16.50;;;22.70;99.90;;;;;;4986062;28;20325;-72
2023/06/20 01:01:33;;;;;;;17.40;15.95;;;22.70;99.90;;;;;;4985862;28;20265;-72
2023/06/20 01:04:03;;;;;;;16.63;15.35;;;22.60;99.90;;;;;;4985863;28;20714;-72
2023/06/20 01:06:41;;;;;;;17.27;15.85;;;22.60;99.90;;;;;;4986273;28;20206;-72
2023/06/20 01:09:19;;;;;;;19.42;17.80;;;22.60;99.90;;;;;;4990941;28;20225;-71
2023/06/20 01:11:53;;;;;;;18.10;16.50;;;22.60;99.90;;;;;;4998486;28;20645;-72
2023/06/20 01:14:29;;;;;;;18.20;16.48;;;22.50;99.90;;;;;;4986334;28;20284;-72
2023/06/20 01:17:00;;;;;;;17.95;16.55;;;22.50;99.90;;;;;;4986051;28;20194;-72
2023/06/20 01:19:49;;;;;;;18.23;16.55;;;22.60;99.90;;;;;;4986276;28;20294;-72
2023/06/20 01:22:42;;;;;;;18.88;17.17;;;22.50;99.90;;;;;;4986003;28;20760;-72
2023/06/20 01:25:17;;;;;;;17.30;15.80;;;22.60;99.90;;;;;;4971025;28;20213;-73
2023/06/20 01:27:52;;;;;;;17.35;15.93;;;22.60;99.90;;;;;;4986286;28;20260;-73
2023/06/20 01:30:25;;;;;;;18.25;16.80;;;22.50;99.90;;;;;;4986118;28;20645;-73
2023/06/20 01:32:58;;;;;;;18.00;16.60;;;22.50;99.90;;;;;;4986519;28;20325;-73
2023/06/20 01:35:30;;;;;;;17.77;16.15;;;22.50;99.90;;;;;;4985802;28;20678;-72
2023/06/20 01:38:01;;;;;;;18.88;17.15;;;22.50;99.90;;;;;;5004267;28;20300;-72
2023/06/20 01:40:30;;;;;;;18.10;16.60;;;22.50;99.90;;;;;;5005905;28;20304;-72
2023/06/20 01:43:00;;;;;;;18.80;17.33;;;22.40;99.90;;;;;;5005718;28;20319;-73
2023/06/20 01:45:29;;;;;;;18.58;16.88;;;22.40;99.90;;;;;;4996495;28;20277;-74
2023/06/20 01:48:00;;;;;;;18.38;16.90;;;22.40;99.90;;;;;;4986536;28;20210;-73
2023/06/20 01:50:29;;;;;;;18.73;17.23;;;22.40;99.90;;;;;;4985855;28;20230;-72
2023/06/20 01:52:58;;;;;;;18.80;17.20;;;22.40;99.90;;;;;;4986099;28;20633;-73
2023/06/20 01:55:28;;;;;;;18.02;16.45;;;22.40;99.90;;;;;;4985316;28;20305;-73
2023/06/20 01:57:58;;;;;;;18.20;16.70;;;22.40;99.90;;;;;;4986347;28;20198;-72
2023/06/20 02:00:27;;;;;;;19.88;18.10;;;22.40;99.90;;;;;;4986185;28;20723;-73
2023/06/20 02:02:56;;;;;;;18.52;16.88;;;22.30;99.90;;;;;;4985903;28;20213;-73
2023/06/20 02:05:24;;;;;;;18.77;17.30;;;22.30;99.90;;;;;;4990432;28;20260;-73
2023/06/20 02:07:54;;;;;;;18.63;17.10;;;22.30;99.90;;;;;;4987843;28;20295;-73
2023/06/20 02:10:22;;;;;;;19.15;17.60;;;22.30;99.90;;;;;;4989244;28;20740;-72
2023/06/20 02:12:51;;;;;;;19.25;17.60;;;22.20;99.90;;;;;;4989763;28;20214;-72
2023/06/20 02:15:21;;;;;;;19.52;17.98;;;22.20;99.90;;;;;;4989167;28;20302;-74
2023/06/20 02:17:49;;;;;;;18.17;16.75;;;22.10;99.90;;;;;;4989334;28;20567;-73
2023/06/20 02:20:16;;;;;;;17.42;16.02;;;22.10;99.90;;;;;;4989262;28;20668;-75
2023/06/20 02:22:46;;;;;;;18.67;17.17;;;22.10;99.90;;;;;;4988891;28;20216;-71
2023/06/20 02:25:20;;;;;;;18.77;17.17;;;22.10;99.90;;;;;;4989146;28;20587;-71
2023/06/20 02:27:47;;;;;;;18.02;16.63;;;22.10;99.90;;;;;;4988809;28;20249;-71
2023/06/20 02:30:16;;;;;;;18.88;17.40;;;22.10;99.90;;;;;;4987531;28;20289;-71
2023/06/20 02:32:46;;;;;;;18.95;17.35;;;22.10;99.90;;;;;;4987489;28;20214;-71
2023/06/20 02:35:14;;;;;;;19.35;17.67;;;22.10;99.90;;;;;;4988002;28;20206;-71
2023/06/20 02:37:43;;;;;;;18.90;17.30;;;22.10;99.90;;;;;;5003889;28;20209;-71
2023/06/20 02:40:12;;;;;;;19.55;17.55;;;22.10;99.90;;;;;;5007365;28;20295;-71
2023/06/20 02:42:39;;;;;;;19.42;17.92;;;22.10;99.90;;;;;;5007091;28;20296;-71
2023/06/20 02:45:06;;;;;;;19.60;18.05;;;22.10;99.90;;;;;;5006779;28;20237;-71
2023/06/20 02:47:41;;;;;;;19.10;17.27;;;22.10;99.90;;;;;;5006641;28;20316;-72
2023/06/20 02:50:16;;;;;;;20.10;18.20;;;22.10;99.90;;;;;;4993002;28;20293;-71
2023/06/20 02:52:48;;;;;;;19.88;18.27;;;22.10;99.90;;;;;;4987002;28;20238;-71
2023/06/20 02:55:24;;;;;;;19.85;17.98;;;22.10;99.90;;;;;;4986765;28;20272;-70
2023/06/20 02:57:55;;;;;;;18.40;16.90;;;22.00;99.90;;;;;;4986643;28;20203;-71
2023/06/20 03:00:23;;;;;;;18.90;17.38;;;21.90;99.90;;;;;;4986444;28;20195;-70
2023/06/20 03:02:55;;;;;;;19.25;17.50;;;22.00;99.90;;;;;;4986674;28;20210;-70
2023/06/20 03:05:25;;;;;;;18.75;17.20;;;22.00;99.90;;;;;;4986075;28;20882;-71
2023/06/20 03:07:53;;;;;;;19.52;17.73;;;22.00;99.90;;;;;;4988404;28;20210;-70
2023/06/20 03:10:21;;;;;;;19.13;17.42;;;22.00;99.90;;;;;;4987639;28;20284;-70
2023/06/20 03:12:48;;;;;;;20.05;17.95;;;22.00;99.90;;;;;;4986999;28;20685;-70
2023/06/20 03:15:15;;;;;;;20.55;18.50;;;22.00;99.90;;;;;;4986629;28;20752;-70
2023/06/20 03:17:42;;;;;;;19.10;17.40;;;21.90;99.90;;;;;;4987252;28;20366;-70
2023/06/20 03:20:10;;;;;;;20.30;18.60;;;21.90;99.90;;;;;;4986093;28;20659;-70
2023/06/20 03:22:38;;;;;;;19.80;18.05;;;21.90;99.90;;;;;;4986724;28;20594;-73
2023/06/20 03:25:05;;;;;;;18.63;16.75;;;21.90;99.90;;;;;;4987040;28;20273;-70
2023/06/20 03:27:32;;;;;;;19.65;17.98;;;21.90;99.90;;;;;;5002653;28;20201;-70
2023/06/20 03:30:00;;;;;;;18.13;16.65;;;21.90;99.90;;;;;;5007318;28;20283;-70
2023/06/20 03:32:27;;;;;;;18.75;17.23;;;21.90;99.90;;;;;;5003282;28;20226;-70
2023/06/20 03:34:54;;;;;;;19.38;17.77;;;21.90;99.90;;;;;;4987885;28;20284;-70
2023/06/20 03:37:21;;;;;;;19.05;17.48;;;21.90;99.90;;;;;;5000862;28;20317;-70
2023/06/20 03:39:49;;;;;;;20.35;18.35;;;22.00;99.90;;;;;;5007316;28;21048;-70
2023/06/20 03:42:16;;;;;;;20.90;18.90;;;22.00;99.90;;;;;;5007243;28;20320;-70
2023/06/20 03:44:42;;;;;;;20.27;18.33;;;21.90;99.90;;;;;;5006740;28;20324;-70
2023/06/20 03:47:09;;;;;;;21.15;18.90;;;21.90;99.90;;;;;;4999053;28;20230;-70
2023/06/20 03:49:37;;;;;;;21.60;19.60;;;21.90;99.90;;;;;;4987350;28;20309;-70
2023/06/20 03:52:04;;;;;;;22.55;20.55;;;21.70;99.90;;;;;;4986968;28;20250;-70
2023/06/20 03:54:31;;;;;;;24.48;22.17;;;21.70;99.90;;;;;;4987396;28;20293;-70
2023/06/20 03:56:59;;;;;;;25.75;23.20;;;21.80;99.90;;;;;;4987370;28;20214;-70
2023/06/20 03:59:26;;;;;;;24.83;22.42;;;21.80;99.90;;;;;;4970264;28;20325;-70
2023/06/20 04:01:53;;;;;;;26.45;23.85;;;21.90;99.90;;;;;;4985554;28;20316;-70
2023/06/20 04:04:20;;;;;;;24.80;22.40;;;21.90;99.90;;;;;;4986995;28;20241;-70
2023/06/20 04:06:49;;;;;;;24.40;22.17;;;22.00;99.90;;;;;;4986854;28;20214;-70
2023/06/20 04:09:16;;;;;;;23.10;21.00;;;22.10;99.90;;;;;;4987284;28;20297;-70
2023/06/20 04:11:43;;;;;;;22.30;20.13;;;22.10;99.90;;;;;;4983042;28;20214;-71
2023/06/20 04:14:11;;;;;;;21.52;19.55;;;22.10;99.90;;;;;;4967417;28;20753;-71
2023/06/20 04:16:38;;;;;;;22.70;20.52;;;22.10;99.90;;;;;;4967094;28;20238;-71
2023/06/20 04:19:06;;;;;;;22.02;20.02;;;22.10;99.90;;;;;;4967685;28;20293;-70
2023/06/20 04:21:32;;;;;;;22.60;20.50;;;22.20;99.90;;;;;;4967182;28;20265;-70
2023/06/20 04:23:59;;;;;;;22.83;20.83;;;22.20;99.90;;;;;;4984002;28;20317;-70
2023/06/20 04:26:26;;;;;;;23.02;20.73;;;22.10;99.90;;;;;;4969785;28;20211;-70
2023/06/20 04:28:53;;;;;;;23.35;21.33;;;22.10;99.90;;;;;;4972673;28;20583;-70
2023/06/20 04:31:21;;;;;;;22.83;20.67;;;21.80;99.90;;;;;;4986477;28;20210;-71
2023/06/20 04:33:48;;;;;;;22.50;20.50;;;21.80;99.90;;;;;;4986552;28;20309;-70
2023/06/20 04:36:15;;;;;;;21.98;20.08;;;21.90;99.90;;;;;;4986485;28;20214;-70
2023/06/20 04:38:43;;;;;;;22.10;20.10;;;22.00;99.90;;;;;;4986605;28;20206;-70
2023/06/20 04:41:10;;;;;;;21.42;19.55;;;22.10;99.90;;;;;;4986844;28;20210;-70
2023/06/20 04:43:37;;;;;;;21.85;19.70;;;22.10;99.90;;;;;;4986593;28;20206;-70
2023/06/20 04:46:05;;;;;;;22.50;20.17;;;22.20;99.90;;;;;;4986445;28;20222;-70
2023/06/20 04:48:35;;;;;;;22.48;20.35;;;22.20;99.90;;;;;;4986587;28;20293;-70
2023/06/20 04:51:07;;;;;;;21.83;19.85;;;22.30;99.90;;;;;;4986737;28;20226;-70
2023/06/20 04:53:34;;;;;;;22.08;20.05;;;22.30;99.90;;;;;;4986086;28;20598;-70
2023/06/20 04:56:01;;;;;;;22.55;20.55;;;22.30;99.90;;;;;;4980543;28;20214;-70
2023/06/20 04:58:28;;;;;;;22.23;20.00;;;22.40;99.90;;;;;;4985932;28;20245;-70
2023/06/20 05:00:55;;;;;;;25.17;19.73;;;22.40;99.90;;;;;;4986106;28;20241;-70
2023/06/20 05:03:22;;;;;;;20.95;18.92;;;22.40;99.90;;;;;;4986317;28;20293;-70
2023/06/20 05:05:51;;;;;;;21.05;19.13;;;22.40;99.90;;;;;;4985603;28;20345;-70
2023/06/20 05:08:17;;;;;;;20.67;18.73;;;22.40;99.90;;;;;;4979077;28;20218;-70
2023/06/20 05:10:45;;;;;;;22.75;20.48;;;22.40;99.90;;;;;;4966719;28;20218;-70
2023/06/20 05:13:12;;;;;;;21.42;19.52;;;22.40;99.90;;;;;;4966413;28;20326;-70
2023/06/20 05:15:39;;;;;;;22.30;20.25;;;22.40;99.90;;;;;;4966390;28;20469;-70
2023/06/20 05:18:06;;;;;;;29.08;20.80;;;22.50;99.90;;;;;;4966466;28;20225;-70
2023/06/20 05:20:33;;;;;;;22.27;19.98;;;22.50;99.90;;;;;;4985636;28;20210;-70
2023/06/20 05:23:01;;;;;;;23.63;21.30;;;22.50;99.90;;;;;;4985975;28;20202;-70
2023/06/20 05:25:28;;;;;;;22.42;20.23;;;22.50;99.90;;;;;;4985772;28;20759;-70
2023/06/20 05:27:55;;;;;;;22.98;20.80;;;22.50;99.90;;;;;;4986091;28;20210;-70
2023/06/20 05:30:22;;;;;;;21.63;19.45;;;22.50;99.90;;;;;;4986010;28;20210;-70
2023/06/20 05:32:49;;;;;;;22.65;20.35;;;22.50;99.90;;;;;;4986248;28;20300;-70
2023/06/20 05:35:16;;;;;;;23.30;21.30;;;22.60;99.90;;;;;;4985936;28;20316;-70
2023/06/20 05:37:45;;;;;;;23.95;21.45;;;22.60;99.90;;;;;;4985851;28;20216;-70
2023/06/20 05:40:15;;;;;;;23.95;20.73;;;22.60;99.90;;;;;;4985869;28;20210;-70
2023/06/20 05:42:41;;;;;;;29.67;21.05;;;22.60;99.90;;;;;;4986240;28;20684;-70
2023/06/20 05:45:09;;;;;;;32.53;20.95;;;22.60;99.90;;;;;;4989319;28;20324;-70
2023/06/20 05:47:36;;;;;;;24.20;20.52;;;22.60;99.90;;;;;;4989367;28;20206;-70
2023/06/20 05:50:04;;;;;;;23.52;21.05;;;22.60;99.90;;;;;;4989667;28;20230;-70
2023/06/20 05:52:31;;;;;;;22.52;20.27;;;22.60;99.90;;;;;;4989568;28;20272;-70
2023/06/20 05:54:59;;;;;;;21.80;19.90;;;22.70;99.90;;;;;;4989634;28;20206;-70
2023/06/20 05:57:27;;;;;;;22.63;20.63;;;22.80;99.90;;;;;;4989392;28;20581;-70
2023/06/20 05:59:54;;;;;;;22.13;20.00;;;22.80;99.90;;;;;;4989418;28;20234;-70
2023/06/20 06:02:21;;;;;;;22.98;20.67;;;22.80;99.90;;;;;;4990033;28;20293;-70
2023/06/20 06:04:49;;;;;;;22.52;20.13;;;22.90;99.90;;;;;;4989698;28;20233;-70
2023/06/20 06:07:16;;;;;;;23.70;21.40;;;22.90;99.90;;;;;;4989892;28;20305;-70
2023/06/20 06:09:42;;;;;;;24.33;21.85;;;22.90;99.90;;;;;;4989291;28;20208;-70
2023/06/20 06:12:10;;;;;;;29.13;22.02;;;22.90;99.90;;;;;;4989267;28;20214;-70
2023/06/20 06:14:39;;;;;;;32.67;21.70;;;23.00;99.90;;;;;;4988867;28;20221;-70
2023/06/20 06:17:06;;;;;;;29.60;21.33;;;23.00;99.90;;;;;;4988451;28;20653;-70
2023/06/20 06:19:33;;;;;;;24.55;20.02;;;23.10;99.90;;;;;;4988612;28;20808;-71
2023/06/20 06:22:00;;;;;;;36.40;21.10;;;23.20;99.90;;;;;;4988853;28;20214;-70
2023/06/20 06:24:26;;;;;;;22.77;19.38;;;23.20;99.90;;;;;;4988693;28;20226;-71
2023/06/20 06:26:53;;;;;;;22.08;19.77;;;23.20;99.90;;;;;;4969098;28;20654;-70
2023/06/20 06:29:20;;;;;;;25.13;19.10;;;23.30;99.90;;;;;;4969145;28;20221;-70
2023/06/20 06:31:49;;;;;;;21.70;19.42;;;23.30;99.90;;;;;;4969348;28;20294;-70
2023/06/20 06:34:17;;;;;;;22.58;20.17;;;23.40;99.90;;;;;;4969070;28;20963;-70
2023/06/20 06:36:49;;;;;;;22.15;20.25;;;23.40;99.90;;;;;;4985758;28;20328;-70
2023/06/20 06:39:18;;;;;;;29.90;19.80;;;23.50;99.90;;;;;;5008367;28;20220;-70
2023/06/20 06:41:47;;;;;;;45.83;19.98;;;23.50;99.90;;;;;;5008170;28;20233;-70
2023/06/20 06:44:14;;;;;;;30.98;19.30;;;23.50;99.90;;;;;;5007933;28;20304;-70
2023/06/20 06:46:41;;;;;;;21.23;19.23;;;23.60;99.90;;;;;;5007790;28;20213;-70
2023/06/20 06:49:09;;;;;;;20.38;18.42;;;23.60;99.90;;;;;;5002020;28;20213;-71
2023/06/20 06:51:37;;;;;;;21.13;19.33;;;23.60;99.90;;;;;;4988668;28;20234;-70
2023/06/20 06:54:04;;;;;;;21.40;19.48;;;23.60;99.90;;;;;;4988809;28;20229;-70
2023/06/20 06:56:34;;;;;;;22.02;19.52;;;23.70;99.90;;;;;;5006865;28;20668;-70
2023/06/20 06:59:02;;;;;;;21.73;19.80;;;23.70;99.90;;;;;;5008204;28;20217;-70
2023/06/20 07:01:29;;;;;;;23.33;18.83;;;23.60;99.90;;;;;;5007852;28;20217;-70
2023/06/20 07:03:56;;;;;;;59.65;21.63;;;23.70;99.90;;;;;;5007873;28;20236;-70
2023/06/20 07:06:24;;;;;;;53.15;21.13;;;23.70;99.90;;;;;;5007570;28;20328;-70
2023/06/20 07:08:52;;;;;;;20.67;18.75;;;23.80;99.90;;;;;;5007906;28;20296;-71
2023/06/20 07:11:19;;;;;;;21.60;19.73;;;23.80;99.90;;;;;;5008072;28;20237;-70
2023/06/20 07:13:46;;;;;;;22.05;19.17;;;23.80;99.90;;;;;;5007618;28;20680;-70
2023/06/20 07:16:13;;;;;;;19.65;18.05;;;23.90;99.90;;;;;;5007472;28;20755;-69
2023/06/20 07:18:40;;;;;;;20.48;18.52;;;24.00;99.90;;;;;;5007995;28;20586;-70
2023/06/20 07:21:07;;;;;;;21.48;19.58;;;24.10;99.90;;;;;;5007544;28;21077;-70
2023/06/20 07:23:35;;;;;;;22.10;19.98;;;24.10;99.90;;;;;;5007315;28;20755;-70
2023/06/20 07:26:02;;;;;;;22.05;20.13;;;24.20;99.90;;;;;;4993922;28;20313;-70
2023/06/20 07:28:29;;;;;;;22.80;20.67;;;24.20;99.90;;;;;;4987931;28;20206;-70
2023/06/20 07:30:56;;;;;;;23.70;19.85;;;24.30;99.90;;;;;;4987789;28;20206;-70
2023/06/20 07:33:23;;;;;;;21.27;19.00;;;24.30;99.90;;;;;;4987508;28;20265;-70
2023/06/20 07:35:49;;;;;;;23.85;21.35;;;24.30;99.90;;;;;;4987850;28;20845;-70
2023/06/20 07:38:16;;;;;;;23.48;21.33;;;24.40;99.90;;;;;;4987535;28;20675;-70
2023/06/20 07:40:45;;;;;;;29.20;26.55;;;24.40;99.90;;;;;;4987576;28;20213;-70
2023/06/20 07:43:11;;;;;;;27.88;24.75;;;24.40;99.90;;;;;;4994581;28;20208;-70
2023/06/20 07:45:38;;;;;;;23.45;21.20;;;24.40;99.90;;;;;;4998793;28;20234;-70
2023/06/20 07:48:06;;;;;;;23.20;21.13;;;24.40;99.90;;;;;;4987368;28;20269;-70
2023/06/20 07:50:33;;;;;;;23.50;21.35;;;24.40;99.90;;;;;;4987555;28;20265;-70
2023/06/20 07:53:00;;;;;;;23.52;21.08;;;24.40;99.90;;;;;;4987107;28;20336;-70
2023/06/20 07:55:26;;;;;;;21.40;19.50;;;24.40;99.90;;;;;;4987396;28;20220;-70
2023/06/20 07:57:56;;;;;;;21.83;19.63;;;24.40;99.90;;;;;;4974210;28;20202;-70
2023/06/20 08:00:24;;;;;;;22.23;19.98;;;24.50;99.90;;;;;;4967772;28;20217;-70
2023/06/20 08:02:52;;;;;;;21.17;19.15;;;24.50;99.90;;;;;;4967968;28;20215;-70
2023/06/20 08:05:19;;;;;;;21.58;19.30;;;24.60;99.90;;;;;;4967937;28;20242;-70
2023/06/20 08:07:46;;;;;;;23.40;21.27;;;24.60;99.90;;;;;;4993427;28;20349;-70
2023/06/20 08:10:13;;;;;;;21.20;19.20;;;24.60;99.90;;;;;;4987236;28;20309;-70
2023/06/20 08:12:40;;;;;;;22.45;20.13;;;24.50;99.90;;;;;;4987159;28;20214;-70
2023/06/20 08:15:09;;;;;;;20.20;18.38;;;24.50;99.90;;;;;;4986865;28;20609;-70
2023/06/20 08:17:36;;;;;;;21.63;19.73;;;24.50;99.90;;;;;;4986468;28;20669;-70
2023/06/20 08:20:06;;;;;;;24.25;21.60;;;24.60;99.90;;;;;;4987125;28;20289;-70
2023/06/20 08:22:33;;;;;;;23.73;21.10;;;24.50;99.90;;;;;;4986410;28;20683;-70
2023/06/20 08:25:00;;;;;;;28.08;18.77;;;24.40;99.90;;;;;;4972523;28;20308;-70
2023/06/20 08:27:27;;;;;;;20.98;18.77;;;24.40;99.90;;;;;;4986819;28;20301;-70
2023/06/20 08:29:54;;;;;;;20.17;18.38;;;24.40;99.90;;;;;;4986369;28;20272;-70
2023/06/20 08:32:22;;;;;;;19.95;18.15;;;24.40;99.90;;;;;;4986604;28;20298;-70
2023/06/20 08:34:49;;;;;;;20.30;18.30;;;24.40;99.90;;;;;;4986732;28;20301;-70
2023/06/20 08:37:17;;;;;;;20.55;18.55;;;24.40;99.90;;;;;;4999531;28;20215;-70
2023/06/20 08:39:44;;;;;;;21.25;19.52;;;24.40;99.90;;;;;;5006039;28;20639;-70
2023/06/20 08:42:11;;;;;;;22.98;21.00;;;24.30;99.90;;;;;;4995699;28;20807;-70
2023/06/20 08:44:38;;;;;;;23.60;21.48;;;24.30;99.90;;;;;;4986614;28;20260;-70
2023/06/20 08:47:06;;;;;;;22.48;20.27;;;24.00;99.90;;;;;;4986447;28;20249;-70
2023/06/20 08:49:34;;;;;;;24.13;21.77;;;23.90;99.90;;;;;;4986438;28;20276;-70
2023/06/20 08:52:09;;;;;;;23.23;21.00;;;23.90;99.90;;;;;;4986539;28;20214;-70
2023/06/20 08:54:41;;;;;;;22.08;20.08;;;23.80;99.90;;;;;;4984223;28;20198;-70
2023/06/20 08:57:08;;;;;;;23.00;21.00;;;23.70;99.90;;;;;;4966904;28;20207;-70
2023/06/20 08:59:35;;;;;;;21.63;19.55;;;23.70;99.90;;;;;;4966913;28;20317;-70
2023/06/20 09:02:02;;;;;;;21.60;19.67;;;23.50;99.90;;;;;;4967123;28;20225;-70
2023/06/20 09:04:29;;;;;;;22.05;19.35;;;23.50;99.90;;;;;;4976999;28;20665;-70
2023/06/20 09:06:58;;;;;;;21.55;19.48;;;23.40;99.90;;;;;;4986412;28;20269;-70
2023/06/20 09:09:25;;;;;;;23.20;20.73;;;23.10;99.90;;;;;;4986029;28;20214;-71
2023/06/20 09:11:56;;;;;;;22.67;20.50;;;22.90;99.90;;;;;;4985891;28;20202;-70
2023/06/20 09:14:27;;;;;;;23.10;21.10;;;22.80;99.90;;;;;;4985679;28;20198;-70
2023/06/20 09:16:54;;;;;;;24.70;22.50;;;22.60;99.90;;;;;;4985954;28;20526;-70
2023/06/20 09:19:20;;;;;;;24.98;22.73;;;22.40;99.90;;;;;;4985320;28;20687;-70
2023/06/20 09:21:48;;;;;;;26.00;23.50;;;22.30;99.90;;;;;;4986170;28;20309;-70
2023/06/20 09:24:18;;;;;;;26.02;23.42;;;22.10;99.90;;;;;;4971974;28;20213;-70
2023/06/20 09:26:47;;;;;;;25.15;22.55;;;22.10;99.90;;;;;;4985883;28;20256;-70
2023/06/20 09:29:15;;;;;;;24.52;22.35;;;22.10;99.90;;;;;;4985861;28;20210;-70
2023/06/20 09:31:44;;;;;;;23.85;21.58;;;22.10;99.90;;;;;;4985722;28;20202;-70
2023/06/20 09:34:14;;;;;;;24.33;22.23;;;22.10;99.90;;;;;;4985813;28;20241;-70
2023/06/20 09:36:42;;;;;;;24.92;22.77;;;21.90;99.90;;;;;;4992688;28;20314;-70
2023/06/20 09:39:12;;;;;;;22.70;20.73;;;21.90;99.90;;;;;;4986186;28;20309;-70
2023/06/20 09:41:45;;;;;;;24.48;22.02;;;21.90;99.90;;;;;;4986015;28;20710;-70
2023/06/20 09:44:13;;;;;;;25.43;23.03;;;21.70;99.90;;;;;;4985845;28;20233;-70
2023/06/20 09:46:40;;;;;;;25.60;23.17;;;21.40;99.90;;;;;;4985448;28;20486;-70
2023/06/20 09:49:08;;;;;;;26.00;23.50;;;21.40;99.90;;;;;;4985698;28;20218;-70
2023/06/20 09:51:38;;;;;;;25.53;23.10;;;21.30;99.90;;;;;;4985549;28;20677;-70
2023/06/20 09:54:06;;;;;;;26.10;23.67;;;21.30;99.90;;;;;;4985514;28;20724;-70
2023/06/20 09:56:40;;;;;;;25.60;23.13;;;21.30;99.90;;;;;;4985625;28;20224;-70
2023/06/20 09:59:10;;;;;;;25.07;22.87;;;21.50;99.90;;;;;;4985808;28;20707;-70
2023/06/20 10:01:39;;;;;;;26.30;23.77;;;21.40;99.90;;;;;;4985481;28;20692;-70
2023/06/20 10:04:07;;;;;;;26.77;24.25;;;21.50;99.90;;;;;;4986133;28;20217;-70
2023/06/20 10:06:37;;;;;;;26.97;24.23;;;21.60;99.90;;;;;;4985637;28;20747;-70
2023/06/20 10:09:05;;;;;;;26.05;23.73;;;21.70;99.90;;;;;;4986000;28;20241;-70
2023/06/20 10:11:33;;;;;;;26.92;24.05;;;21.80;99.90;;;;;;4985514;28;20294;-70
2023/06/20 10:14:00;;;;;;;25.63;23.03;;;21.90;99.90;;;;;;4985883;28;20246;-70
2023/06/20 10:16:30;;;;;;;26.33;23.52;;;22.00;99.90;;;;;;4985891;28;20210;-70
2023/06/20 10:18:56;;;;;;;25.73;23.15;;;22.00;99.90;;;;;;4985268;28;20285;-70
2023/06/20 10:21:55;;;;;;;25.70;23.23;;;22.00;99.90;;;;;;4985226;28;20210;-69
2023/06/20 10:24:22;;;;;;;25.88;23.17;;;22.10;99.90;;;;;;4970884;28;20199;-70
2023/06/20 10:26:53;;;;;;;25.27;22.88;;;22.10;99.90;;;;;;4966240;28;20239;-70
2023/06/20 10:29:21;;;;;;;25.00;22.50;;;22.10;99.90;;;;;;4966587;28;20575;-70
2023/06/20 10:32:04;;;;;;;26.25;23.85;;;22.10;99.90;;;;;;4969582;28;20222;-70
2023/06/20 10:34:35;;;;;;;24.73;22.52;;;22.10;99.90;;;;;;4978105;28;20297;-70
2023/06/20 10:37:17;;;;;;;26.20;23.65;;;22.10;99.90;;;;;;4988761;28;20990;-70
2023/06/20 10:39:53;;;;;;;26.05;23.70;;;22.10;99.90;;;;;;4988531;28;20213;-70
2023/06/20 10:42:38;;;;;;;25.70;23.25;;;22.10;99.90;;;;;;4988743;28;20709;-70
2023/06/20 10:45:21;;;;;;;24.70;22.58;;;22.10;99.90;;;;;;4988226;28;20198;-70
2023/06/20 10:47:51;;;;;;;25.17;22.88;;;22.20;99.90;;;;;;4988868;28;20222;-70
2023/06/20 10:50:18;;;;;;;25.25;23.02;;;22.20;99.90;;;;;;4988882;28;20317;-70
2023/06/20 10:52:46;;;;;;;24.20;21.70;;;22.20;99.90;;;;;;4988210;28;20273;-70
2023/06/20 10:55:17;;;;;;;24.25;22.15;;;22.20;99.90;;;;;;4988585;28;20228;-70
2023/06/20 10:57:45;;;;;;;24.73;22.42;;;22.30;99.90;;;;;;4988370;28;20218;-70
2023/06/20 11:00:17;;;;;;;24.05;21.85;;;22.30;99.90;;;;;;4988067;28;20215;-70
2023/06/20 11:02:44;;;;;;;23.77;21.55;;;22.30;99.90;;;;;;4988025;28;20230;-70
2023/06/20 11:05:13;;;;;;;24.75;22.65;;;22.40;99.90;;;;;;4988326;28;20210;-70
2023/06/20 11:07:58;;;;;;;24.55;22.25;;;22.40;99.90;;;;;;4988190;28;20242;-70
2023/06/20 11:10:28;;;;;;;24.08;21.92;;;22.40;99.90;;;;;;4988231;28;20202;-70
2023/06/20 11:12:56;;;;;;;26.45;23.88;;;22.40;99.90;;;;;;4988440;28;20198;-70
2023/06/20 11:15:25;;;;;;;24.90;22.70;;;22.40;99.90;;;;;;4987519;28;20268;-70
2023/06/20 11:17:52;;;;;;;24.20;21.85;;;22.40;99.90;;;;;;4988137;28;20930;-70
2023/06/20 11:20:22;;;;;;;24.67;22.58;;;22.40;99.90;;;;;;4987841;28;20250;-70
2023/06/20 11:22:49;;;;;;;25.80;23.65;;;22.50;99.90;;;;;;4987835;28;20317;-70
2023/06/20 11:25:24;;;;;;;24.42;22.23;;;22.40;99.90;;;;;;4988291;28;20241;-70
2023/06/20 11:27:51;;;;;;;25.67;23.38;;;22.40;99.90;;;;;;4992067;28;20602;-70
2023/06/20 11:30:24;;;;;;;25.15;22.95;;;22.40;99.90;;;;;;5001901;28;20213;-70
2023/06/20 11:32:59;;;;;;;25.02;22.83;;;22.40;99.90;;;;;;4987897;28;20282;-70
2023/06/20 11:35:47;;;;;;;25.45;22.95;;;22.50;99.90;;;;;;4987274;28;20202;-70
2023/06/20 11:38:15;;;;;;;25.65;23.48;;;22.50;99.90;;;;;;4968122;28;20206;-70
2023/06/20 11:40:43;;;;;;;26.67;24.25;;;22.60;99.90;;;;;;4967864;28;20211;-70
2023/06/20 11:43:21;;;;;;;26.45;24.00;;;22.60;99.90;;;;;;4983350;28;20214;-70
2023/06/20 11:45:48;;;;;;;26.27;23.88;;;22.80;99.90;;;;;;4987024;28;20314;-70
2023/06/20 11:48:16;;;;;;;24.67;22.35;;;22.90;99.90;;;;;;4987757;28;20214;-70
2023/06/20 11:50:54;;;;;;;25.77;23.60;;;23.00;99.90;;;;;;4987311;28;20225;-70
2023/06/20 11:53:21;;;;;;;26.70;24.10;;;23.20;99.90;;;;;;4987540;28;20828;-70
2023/06/20 11:55:50;;;;;;;26.30;23.95;;;23.40;99.90;;;;;;4975798;28;20910;-70
2023/06/20 11:58:18;;;;;;;28.75;26.25;;;23.60;99.90;;;;;;4968154;28;20586;-70
2023/06/20 12:00:47;;;;;;;28.23;25.65;;;23.60;99.90;;;;;;4967532;28;20211;-70
2023/06/20 12:03:19;;;;;;;29.48;26.65;;;23.60;99.90;;;;;;4967667;28;20218;-70
2023/06/20 12:05:48;;;;;;;27.88;25.58;;;23.60;99.90;;;;;;4968389;28;20215;-70
2023/06/20 12:08:15;;;;;;;29.55;26.88;;;23.60;99.90;;;;;;4986949;28;20296;-69
2023/06/20 12:10:48;;;;;;;27.67;25.20;;;23.60;99.90;;;;;;4987153;28;20317;-70
2023/06/20 12:13:15;;;;;;;27.00;24.80;;;23.60;99.90;;;;;;4987128;28;20198;-70
2023/06/20 12:15:44;;;;;;;26.65;24.33;;;23.70;99.90;;;;;;4986604;28;20242;-70
2023/06/20 12:18:11;;;;;;;26.73;24.33;;;23.80;99.90;;;;;;4987274;28;20240;-70
2023/06/20 12:20:38;;;;;;;24.92;22.83;;;24.00;99.90;;;;;;4987063;28;20293;-70
2023/06/20 12:23:06;;;;;;;26.73;24.42;;;24.20;99.90;;;;;;4987014;28;20217;-70
2023/06/20 12:25:33;;;;;;;25.92;23.83;;;24.40;99.90;;;;;;4993135;28;20737;-70
2023/06/20 12:28:01;;;;;;;25.75;23.33;;;24.40;99.90;;;;;;4986697;28;20336;-70
2023/06/20 12:30:30;;;;;;;24.50;22.38;;;24.50;99.90;;;;;;4986783;28;20210;-70
2023/06/20 12:32:58;;;;;;;24.52;22.40;;;24.60;99.90;;;;;;4997596;28;20201;-70
2023/06/20 12:35:26;;;;;;;26.88;24.38;;;24.80;99.90;;;;;;5006120;28;20215;-70